sensor_id;sensor_type;location;lat;lon;timestamp;P1;durP1;ratioP1;P2;durP2;ratioP2
67986;SDS011;54767;53.800;15.956;2023-02-26T00:01:41;2.90;;;1.00;;
67986;SDS011;54767;53.800;15.956;2023-02-26T00:04:10;2.50;;;0.70;;
67986;SDS011;54767;53.800;15.956;2023-02-26T00:06:41;2.50;;;0.90;;
67986;SDS011;54767;53.800;15.956;2023-02-26T00:09:30;1.60;;;0.70;;
67986;SDS011;54767;53.800;15.956;2023-02-26T00:12:35;2.50;;;0.80;;
67986;SDS011;54767;53.800;15.956;2023-02-26T00:15:28;0.70;;;0.40;;
67986;SDS011;54767;53.800;15.956;2023-02-26T00:17:58;1.90;;;0.80;;
67986;SDS011;54767;53.800;15.956;2023-02-26T00:20:35;2.00;;;0.40;;
67986;SDS011;54767;53.800;15.956;2023-02-26T00:23:05;1.10;;;0.60;;
67986;SDS011;54767;53.800;15.956;2023-02-26T00:25:33;2.60;;;0.90;;
67986;SDS011;54767;53.800;15.956;2023-02-26T00:28:02;1.20;;;0.40;;
67986;SDS011;54767;53.800;15.956;2023-02-26T00:30:32;1.70;;;0.80;;
67986;SDS011;54767;53.800;15.956;2023-02-26T00:36:01;1.20;;;0.90;;
67986;SDS011;54767;53.800;15.956;2023-02-26T00:38:45;1.20;;;0.40;;
67986;SDS011;54767;53.800;15.956;2023-02-26T00:41:27;2.00;;;1.00;;
67986;SDS011;54767;53.800;15.956;2023-02-26T00:44:01;2.20;;;1.00;;
67986;SDS011;54767;53.800;15.956;2023-02-26T00:46:59;0.80;;;0.80;;
67986;SDS011;54767;53.800;15.956;2023-02-26T00:55:57;2.60;;;0.50;;
67986;SDS011;54767;53.800;15.956;2023-02-26T00:58:27;3.40;;;0.80;;
67986;SDS011;54767;53.800;15.956;2023-02-26T01:00:58;1.80;;;0.80;;
67986;SDS011;54767;53.800;15.956;2023-02-26T01:03:30;0.90;;;0.60;;
67986;SDS011;54767;53.800;15.956;2023-02-26T01:06:00;6.30;;;1.50;;
67986;SDS011;54767;53.800;15.956;2023-02-26T01:08:33;3.30;;;0.80;;
67986;SDS011;54767;53.800;15.956;2023-02-26T01:11:10;3.40;;;0.90;;
67986;SDS011;54767;53.800;15.956;2023-02-26T01:13:38;0.50;;;0.50;;
67986;SDS011;54767;53.800;15.956;2023-02-26T01:16:08;1.90;;;0.80;;
67986;SDS011;54767;53.800;15.956;2023-02-26T01:18:43;1.60;;;0.60;;
67986;SDS011;54767;53.800;15.956;2023-02-26T01:21:18;1.20;;;0.50;;
67986;SDS011;54767;53.800;15.956;2023-02-26T01:23:55;0.60;;;0.50;;
67986;SDS011;54767;53.800;15.956;2023-02-26T01:26:27;0.80;;;0.40;;
67986;SDS011;54767;53.800;15.956;2023-02-26T01:28:56;1.70;;;1.00;;
67986;SDS011;54767;53.800;15.956;2023-02-26T01:31:36;2.10;;;0.60;;
67986;SDS011;54767;53.800;15.956;2023-02-26T01:43:06;0.90;;;0.40;;
67986;SDS011;54767;53.800;15.956;2023-02-26T01:45:40;1.90;;;0.60;;
67986;SDS011;54767;53.800;15.956;2023-02-26T01:48:30;0.40;;;0.30;;
67986;SDS011;54767;53.800;15.956;2023-02-26T01:51:04;2.10;;;0.60;;
67986;SDS011;54767;53.800;15.956;2023-02-26T01:53:33;0.20;;;0.20;;
67986;SDS011;54767;53.800;15.956;2023-02-26T01:56:03;2.10;;;0.30;;
67986;SDS011;54767;53.800;15.956;2023-02-26T01:58:37;1.60;;;0.30;;
67986;SDS011;54767;53.800;15.956;2023-02-26T02:01:07;0.00;;;0.00;;
67986;SDS011;54767;53.800;15.956;2023-02-26T02:03:36;0.40;;;0.20;;
67986;SDS011;54767;53.800;15.956;2023-02-26T02:06:08;0.60;;;0.20;;
67986;SDS011;54767;53.800;15.956;2023-02-26T02:08:41;0.40;;;0.30;;
67986;SDS011;54767;53.800;15.956;2023-02-26T02:11:10;1.20;;;0.20;;
67986;SDS011;54767;53.800;15.956;2023-02-26T02:27:44;1.80;;;0.80;;
67986;SDS011;54767;53.800;15.956;2023-02-26T02:30:24;4.40;;;1.20;;
67986;SDS011;54767;53.800;15.956;2023-02-26T02:33:09;5.00;;;1.10;;
67986;SDS011;54767;53.800;15.956;2023-02-26T02:35:50;1.90;;;0.60;;
67986;SDS011;54767;53.800;15.956;2023-02-26T02:38:35;1.40;;;0.70;;
67986;SDS011;54767;53.800;15.956;2023-02-26T02:41:19;3.50;;;1.20;;
67986;SDS011;54767;53.800;15.956;2023-02-26T02:43:53;5.50;;;1.20;;
67986;SDS011;54767;53.800;15.956;2023-02-26T02:46:24;3.40;;;1.10;;
67986;SDS011;54767;53.800;15.956;2023-02-26T02:48:59;3.80;;;1.40;;
67986;SDS011;54767;53.800;15.956;2023-02-26T02:51:36;3.20;;;1.00;;
67986;SDS011;54767;53.800;15.956;2023-02-26T02:56:51;4.40;;;1.20;;
67986;SDS011;54767;53.800;15.956;2023-02-26T02:59:35;4.40;;;1.60;;
67986;SDS011;54767;53.800;15.956;2023-02-26T03:04:43;4.40;;;1.60;;
67986;SDS011;54767;53.800;15.956;2023-02-26T03:07:12;5.00;;;0.80;;
67986;SDS011;54767;53.800;15.956;2023-02-26T03:09:41;4.20;;;0.80;;
67986;SDS011;54767;53.800;15.956;2023-02-26T03:12:09;4.00;;;0.90;;
67986;SDS011;54767;53.800;15.956;2023-02-26T03:14:38;4.90;;;1.20;;
67986;SDS011;54767;53.800;15.956;2023-02-26T03:25:56;2.10;;;0.70;;
67986;SDS011;54767;53.800;15.956;2023-02-26T03:28:40;3.60;;;0.80;;
67986;SDS011;54767;53.800;15.956;2023-02-26T03:31:28;4.50;;;1.40;;
67986;SDS011;54767;53.800;15.956;2023-02-26T03:34:11;2.50;;;0.80;;
67986;SDS011;54767;53.800;15.956;2023-02-26T03:37:08;4.30;;;1.30;;
67986;SDS011;54767;53.800;15.956;2023-02-26T03:39:45;3.50;;;0.80;;
67986;SDS011;54767;53.800;15.956;2023-02-26T03:44:48;3.50;;;1.10;;
67986;SDS011;54767;53.800;15.956;2023-02-26T03:47:24;6.20;;;1.40;;
67986;SDS011;54767;53.800;15.956;2023-02-26T03:49:54;4.60;;;0.80;;
67986;SDS011;54767;53.800;15.956;2023-02-26T03:52:28;1.50;;;1.00;;
67986;SDS011;54767;53.800;15.956;2023-02-26T03:55:45;3.70;;;1.00;;
67986;SDS011;54767;53.800;15.956;2023-02-26T03:57:56;5.00;;;1.10;;
67986;SDS011;54767;53.800;15.956;2023-02-26T04:00:25;6.00;;;1.30;;
67986;SDS011;54767;53.800;15.956;2023-02-26T04:05:31;5.80;;;0.90;;
67986;SDS011;54767;53.800;15.956;2023-02-26T04:08:07;4.90;;;0.90;;
67986;SDS011;54767;53.800;15.956;2023-02-26T04:10:39;4.50;;;1.00;;
67986;SDS011;54767;53.800;15.956;2023-02-26T04:13:10;3.10;;;1.00;;
67986;SDS011;54767;53.800;15.956;2023-02-26T04:15:38;4.80;;;1.10;;
67986;SDS011;54767;53.800;15.956;2023-02-26T04:18:06;4.80;;;0.90;;
67986;SDS011;54767;53.800;15.956;2023-02-26T04:20:34;6.10;;;1.10;;
67986;SDS011;54767;53.800;15.956;2023-02-26T04:23:04;4.10;;;0.60;;
67986;SDS011;54767;53.800;15.956;2023-02-26T04:25:32;5.70;;;1.00;;
67986;SDS011;54767;53.800;15.956;2023-02-26T04:28:00;9.50;;;1.10;;
67986;SDS011;54767;53.800;15.956;2023-02-26T04:30:28;4.60;;;1.00;;
67986;SDS011;54767;53.800;15.956;2023-02-26T04:32:56;2.30;;;1.00;;
67986;SDS011;54767;53.800;15.956;2023-02-26T04:35:25;1.20;;;0.80;;
67986;SDS011;54767;53.800;15.956;2023-02-26T04:37:53;4.40;;;1.10;;
67986;SDS011;54767;53.800;15.956;2023-02-26T04:40:21;3.30;;;0.80;;
67986;SDS011;54767;53.800;15.956;2023-02-26T04:42:52;4.80;;;0.90;;
67986;SDS011;54767;53.800;15.956;2023-02-26T04:45:20;2.90;;;1.20;;
67986;SDS011;54767;53.800;15.956;2023-02-26T04:47:48;4.40;;;0.80;;
67986;SDS011;54767;53.800;15.956;2023-02-26T04:50:16;3.20;;;0.70;;
67986;SDS011;54767;53.800;15.956;2023-02-26T04:52:44;3.60;;;1.20;;
67986;SDS011;54767;53.800;15.956;2023-02-26T04:55:13;2.50;;;0.90;;
67986;SDS011;54767;53.800;15.956;2023-02-26T04:57:41;3.30;;;0.80;;
67986;SDS011;54767;53.800;15.956;2023-02-26T05:00:09;5.60;;;1.00;;
67986;SDS011;54767;53.800;15.956;2023-02-26T05:02:38;2.20;;;0.80;;
67986;SDS011;54767;53.800;15.956;2023-02-26T05:05:07;5.10;;;1.00;;
67986;SDS011;54767;53.800;15.956;2023-02-26T05:07:35;4.90;;;1.20;;
67986;SDS011;54767;53.800;15.956;2023-02-26T05:10:06;4.60;;;0.80;;
67986;SDS011;54767;53.800;15.956;2023-02-26T05:12:35;5.60;;;0.80;;
67986;SDS011;54767;53.800;15.956;2023-02-26T05:15:04;3.00;;;0.90;;
67986;SDS011;54767;53.800;15.956;2023-02-26T05:17:33;2.80;;;1.20;;
67986;SDS011;54767;53.800;15.956;2023-02-26T05:20:02;6.70;;;1.30;;
67986;SDS011;54767;53.800;15.956;2023-02-26T05:22:31;3.30;;;1.00;;
67986;SDS011;54767;53.800;15.956;2023-02-26T05:24:59;4.80;;;1.00;;
67986;SDS011;54767;53.800;15.956;2023-02-26T05:27:28;3.40;;;1.20;;
67986;SDS011;54767;53.800;15.956;2023-02-26T05:29:56;3.30;;;0.80;;
67986;SDS011;54767;53.800;15.956;2023-02-26T05:32:24;2.20;;;1.00;;
67986;SDS011;54767;53.800;15.956;2023-02-26T05:34:53;1.50;;;0.80;;
67986;SDS011;54767;53.800;15.956;2023-02-26T05:37:21;3.80;;;0.80;;
67986;SDS011;54767;53.800;15.956;2023-02-26T05:39:49;4.70;;;0.90;;
67986;SDS011;54767;53.800;15.956;2023-02-26T05:42:17;2.70;;;1.10;;
67986;SDS011;54767;53.800;15.956;2023-02-26T05:44:45;4.20;;;0.80;;
67986;SDS011;54767;53.800;15.956;2023-02-26T05:47:13;3.30;;;0.70;;
67986;SDS011;54767;53.800;15.956;2023-02-26T05:49:41;4.20;;;1.10;;
67986;SDS011;54767;53.800;15.956;2023-02-26T05:52:09;4.50;;;0.80;;
67986;SDS011;54767;53.800;15.956;2023-02-26T05:54:37;3.50;;;1.50;;
67986;SDS011;54767;53.800;15.956;2023-02-26T05:57:06;5.00;;;0.70;;
67986;SDS011;54767;53.800;15.956;2023-02-26T05:59:34;5.20;;;1.00;;
67986;SDS011;54767;53.800;15.956;2023-02-26T06:02:02;2.70;;;0.70;;
67986;SDS011;54767;53.800;15.956;2023-02-26T06:04:31;3.30;;;0.90;;
67986;SDS011;54767;53.800;15.956;2023-02-26T06:06:59;2.40;;;1.10;;
67986;SDS011;54767;53.800;15.956;2023-02-26T06:09:27;3.70;;;0.60;;
67986;SDS011;54767;53.800;15.956;2023-02-26T06:11:55;3.90;;;1.10;;
67986;SDS011;54767;53.800;15.956;2023-02-26T06:14:24;3.50;;;0.90;;
67986;SDS011;54767;53.800;15.956;2023-02-26T06:16:52;9.80;;;3.30;;
67986;SDS011;54767;53.800;15.956;2023-02-26T06:19:20;67.80;;;32.90;;
67986;SDS011;54767;53.800;15.956;2023-02-26T06:21:48;84.90;;;53.40;;
67986;SDS011;54767;53.800;15.956;2023-02-26T06:24:16;54.40;;;30.40;;
67986;SDS011;54767;53.800;15.956;2023-02-26T06:26:44;91.70;;;43.60;;
67986;SDS011;54767;53.800;15.956;2023-02-26T06:29:12;103.70;;;57.80;;
67986;SDS011;54767;53.800;15.956;2023-02-26T06:31:41;34.70;;;24.70;;
67986;SDS011;54767;53.800;15.956;2023-02-26T06:34:10;10.50;;;5.30;;
67986;SDS011;54767;53.800;15.956;2023-02-26T06:36:38;4.80;;;2.00;;
67986;SDS011;54767;53.800;15.956;2023-02-26T06:39:06;2.30;;;1.70;;
67986;SDS011;54767;53.800;15.956;2023-02-26T06:41:34;4.40;;;1.20;;
67986;SDS011;54767;53.800;15.956;2023-02-26T06:44:03;3.70;;;1.00;;
67986;SDS011;54767;53.800;15.956;2023-02-26T06:46:32;3.60;;;0.90;;
67986;SDS011;54767;53.800;15.956;2023-02-26T06:49:00;8.50;;;1.00;;
67986;SDS011;54767;53.800;15.956;2023-02-26T06:51:28;1.80;;;0.80;;
67986;SDS011;54767;53.800;15.956;2023-02-26T06:53:57;4.40;;;1.10;;
67986;SDS011;54767;53.800;15.956;2023-02-26T06:56:26;12.20;;;6.30;;
67986;SDS011;54767;53.800;15.956;2023-02-26T06:58:55;2.30;;;1.90;;
67986;SDS011;54767;53.800;15.956;2023-02-26T07:01:23;1.70;;;0.70;;
67986;SDS011;54767;53.800;15.956;2023-02-26T07:03:51;3.50;;;1.10;;
67986;SDS011;54767;53.800;15.956;2023-02-26T07:06:20;4.90;;;1.30;;
67986;SDS011;54767;53.800;15.956;2023-02-26T07:08:54;3.90;;;1.20;;
67986;SDS011;54767;53.800;15.956;2023-02-26T07:11:23;5.00;;;2.20;;
67986;SDS011;54767;53.800;15.956;2023-02-26T07:13:52;5.20;;;1.50;;
67986;SDS011;54767;53.800;15.956;2023-02-26T07:16:20;6.80;;;1.60;;
67986;SDS011;54767;53.800;15.956;2023-02-26T07:18:48;4.20;;;1.80;;
67986;SDS011;54767;53.800;15.956;2023-02-26T07:21:16;17.40;;;8.70;;
67986;SDS011;54767;53.800;15.956;2023-02-26T07:23:45;7.70;;;5.90;;
67986;SDS011;54767;53.800;15.956;2023-02-26T07:26:13;9.40;;;5.00;;
67986;SDS011;54767;53.800;15.956;2023-02-26T07:28:41;14.90;;;8.20;;
67986;SDS011;54767;53.800;15.956;2023-02-26T07:31:09;10.50;;;7.40;;
67986;SDS011;54767;53.800;15.956;2023-02-26T07:33:37;19.10;;;13.70;;
67986;SDS011;54767;53.800;15.956;2023-02-26T07:36:06;9.60;;;6.50;;
67986;SDS011;54767;53.800;15.956;2023-02-26T07:38:34;2.70;;;2.10;;
67986;SDS011;54767;53.800;15.956;2023-02-26T07:41:02;2.30;;;1.70;;
67986;SDS011;54767;53.800;15.956;2023-02-26T07:43:30;2.10;;;1.50;;
67986;SDS011;54767;53.800;15.956;2023-02-26T07:45:59;2.90;;;1.80;;
67986;SDS011;54767;53.800;15.956;2023-02-26T07:48:27;7.20;;;1.50;;
67986;SDS011;54767;53.800;15.956;2023-02-26T07:50:55;3.60;;;1.70;;
67986;SDS011;54767;53.800;15.956;2023-02-26T07:53:23;5.00;;;1.80;;
67986;SDS011;54767;53.800;15.956;2023-02-26T07:55:51;5.40;;;2.20;;
67986;SDS011;54767;53.800;15.956;2023-02-26T07:58:19;4.40;;;2.40;;
67986;SDS011;54767;53.800;15.956;2023-02-26T08:00:48;3.30;;;2.40;;
67986;SDS011;54767;53.800;15.956;2023-02-26T08:03:16;8.40;;;4.40;;
67986;SDS011;54767;53.800;15.956;2023-02-26T08:05:44;9.00;;;3.80;;
67986;SDS011;54767;53.800;15.956;2023-02-26T08:08:12;4.50;;;1.60;;
67986;SDS011;54767;53.800;15.956;2023-02-26T08:10:41;3.80;;;1.80;;
67986;SDS011;54767;53.800;15.956;2023-02-26T08:13:09;4.20;;;1.70;;
67986;SDS011;54767;53.800;15.956;2023-02-26T08:15:37;4.20;;;2.10;;
67986;SDS011;54767;53.800;15.956;2023-02-26T08:18:06;3.50;;;2.60;;
67986;SDS011;54767;53.800;15.956;2023-02-26T08:20:34;3.70;;;1.70;;
67986;SDS011;54767;53.800;15.956;2023-02-26T08:23:02;4.40;;;1.90;;
67986;SDS011;54767;53.800;15.956;2023-02-26T08:25:30;3.30;;;2.30;;
67986;SDS011;54767;53.800;15.956;2023-02-26T08:27:58;3.10;;;2.20;;
67986;SDS011;54767;53.800;15.956;2023-02-26T08:30:28;4.60;;;3.20;;
67986;SDS011;54767;53.800;15.956;2023-02-26T08:32:57;4.60;;;2.60;;
67986;SDS011;54767;53.800;15.956;2023-02-26T08:35:25;4.00;;;2.90;;
67986;SDS011;54767;53.800;15.956;2023-02-26T08:37:53;5.70;;;3.60;;
67986;SDS011;54767;53.800;15.956;2023-02-26T08:40:21;4.00;;;2.90;;
67986;SDS011;54767;53.800;15.956;2023-02-26T08:42:49;5.30;;;3.20;;
67986;SDS011;54767;53.800;15.956;2023-02-26T08:45:18;2.80;;;2.30;;
67986;SDS011;54767;53.800;15.956;2023-02-26T08:47:46;6.10;;;2.40;;
67986;SDS011;54767;53.800;15.956;2023-02-26T08:50:24;3.00;;;2.00;;
67986;SDS011;54767;53.800;15.956;2023-02-26T08:52:53;4.60;;;1.80;;
67986;SDS011;54767;53.800;15.956;2023-02-26T08:55:21;4.00;;;2.70;;
67986;SDS011;54767;53.800;15.956;2023-02-26T08:57:50;5.90;;;2.50;;
67986;SDS011;54767;53.800;15.956;2023-02-26T09:00:18;4.30;;;2.10;;
67986;SDS011;54767;53.800;15.956;2023-02-26T09:02:47;3.60;;;1.80;;
67986;SDS011;54767;53.800;15.956;2023-02-26T09:05:16;5.80;;;1.70;;
67986;SDS011;54767;53.800;15.956;2023-02-26T09:07:44;3.70;;;1.30;;
67986;SDS011;54767;53.800;15.956;2023-02-26T09:10:13;5.90;;;2.20;;
67986;SDS011;54767;53.800;15.956;2023-02-26T09:12:41;2.60;;;1.40;;
67986;SDS011;54767;53.800;15.956;2023-02-26T09:15:10;3.80;;;1.20;;
67986;SDS011;54767;53.800;15.956;2023-02-26T09:17:41;1.70;;;1.10;;
67986;SDS011;54767;53.800;15.956;2023-02-26T09:20:09;3.00;;;1.40;;
67986;SDS011;54767;53.800;15.956;2023-02-26T09:22:38;1.40;;;1.10;;
67986;SDS011;54767;53.800;15.956;2023-02-26T09:25:07;6.00;;;1.40;;
67986;SDS011;54767;53.800;15.956;2023-02-26T09:27:35;1.60;;;0.90;;
67986;SDS011;54767;53.800;15.956;2023-02-26T09:30:04;3.30;;;1.30;;
67986;SDS011;54767;53.800;15.956;2023-02-26T09:32:33;6.10;;;1.10;;
67986;SDS011;54767;53.800;15.956;2023-02-26T09:35:02;4.10;;;1.30;;
67986;SDS011;54767;53.800;15.956;2023-02-26T09:37:32;5.00;;;1.80;;
67986;SDS011;54767;53.800;15.956;2023-02-26T09:40:00;6.70;;;2.30;;
67986;SDS011;54767;53.800;15.956;2023-02-26T09:45:35;19.90;;;15.50;;
67986;SDS011;54767;53.800;15.956;2023-02-26T09:48:11;7.50;;;5.90;;
67986;SDS011;54767;53.800;15.956;2023-02-26T09:50:48;5.80;;;4.40;;
67986;SDS011;54767;53.800;15.956;2023-02-26T09:53:26;5.00;;;3.20;;
67986;SDS011;54767;53.800;15.956;2023-02-26T09:56:03;10.40;;;7.30;;
67986;SDS011;54767;53.800;15.956;2023-02-26T09:58:38;5.80;;;3.90;;
67986;SDS011;54767;53.800;15.956;2023-02-26T10:11:52;2.20;;;1.00;;
67986;SDS011;54767;53.800;15.956;2023-02-26T10:17:22;3.30;;;1.00;;
67986;SDS011;54767;53.800;15.956;2023-02-26T10:20:20;2.30;;;0.90;;
67986;SDS011;54767;53.800;15.956;2023-02-26T10:23:00;3.00;;;1.00;;
67986;SDS011;54767;53.800;15.956;2023-02-26T10:25:41;2.80;;;1.20;;
67986;SDS011;54767;53.800;15.956;2023-02-26T10:31:32;1.30;;;0.90;;
67986;SDS011;54767;53.800;15.956;2023-02-26T10:34:15;2.80;;;1.10;;
67986;SDS011;54767;53.800;15.956;2023-02-26T10:39:41;1.00;;;0.90;;
67986;SDS011;54767;53.800;15.956;2023-02-26T10:42:44;3.30;;;1.00;;
67986;SDS011;54767;53.800;15.956;2023-02-26T10:50:43;3.10;;;1.50;;
67986;SDS011;54767;53.800;15.956;2023-02-26T10:53:16;3.80;;;1.60;;
67986;SDS011;54767;53.800;15.956;2023-02-26T10:55:47;2.30;;;1.80;;
67986;SDS011;54767;53.800;15.956;2023-02-26T10:58:26;6.30;;;1.70;;
67986;SDS011;54767;53.800;15.956;2023-02-26T11:00:55;3.50;;;3.20;;
67986;SDS011;54767;53.800;15.956;2023-02-26T11:03:35;4.40;;;3.40;;
67986;SDS011;54767;53.800;15.956;2023-02-26T11:06:06;5.20;;;4.20;;
67986;SDS011;54767;53.800;15.956;2023-02-26T11:08:43;7.60;;;4.80;;
67986;SDS011;54767;53.800;15.956;2023-02-26T11:14:07;9.80;;;5.80;;
67986;SDS011;54767;53.800;15.956;2023-02-26T11:16:51;8.20;;;5.30;;
67986;SDS011;54767;53.800;15.956;2023-02-26T11:19:35;5.30;;;2.40;;
67986;SDS011;54767;53.800;15.956;2023-02-26T11:22:06;3.30;;;2.00;;
67986;SDS011;54767;53.800;15.956;2023-02-26T11:24:42;1.90;;;1.70;;
67986;SDS011;54767;53.800;15.956;2023-02-26T11:27:36;12.30;;;7.70;;
67986;SDS011;54767;53.800;15.956;2023-02-26T11:30:06;7.20;;;3.50;;
67986;SDS011;54767;53.800;15.956;2023-02-26T11:32:49;2.30;;;1.70;;
67986;SDS011;54767;53.800;15.956;2023-02-26T11:35:19;3.20;;;1.80;;
67986;SDS011;54767;53.800;15.956;2023-02-26T11:37:52;3.50;;;1.70;;
67986;SDS011;54767;53.800;15.956;2023-02-26T11:40:47;2.80;;;1.50;;
67986;SDS011;54767;53.800;15.956;2023-02-26T11:43:17;3.20;;;1.00;;
67986;SDS011;54767;53.800;15.956;2023-02-26T11:45:51;3.30;;;1.20;;
67986;SDS011;54767;53.800;15.956;2023-02-26T11:48:27;2.40;;;1.40;;
67986;SDS011;54767;53.800;15.956;2023-02-26T11:51:07;3.50;;;1.40;;
67986;SDS011;54767;53.800;15.956;2023-02-26T11:53:51;3.30;;;1.60;;
67986;SDS011;54767;53.800;15.956;2023-02-26T11:56:40;1.80;;;0.80;;
67986;SDS011;54767;53.800;15.956;2023-02-26T11:59:16;3.90;;;1.20;;
67986;SDS011;54767;53.800;15.956;2023-02-26T12:01:47;1.70;;;1.30;;
67986;SDS011;54767;53.800;15.956;2023-02-26T12:04:18;1.70;;;1.30;;
67986;SDS011;54767;53.800;15.956;2023-02-26T12:06:51;2.50;;;2.00;;
67986;SDS011;54767;53.800;15.956;2023-02-26T12:09:22;2.80;;;1.80;;
67986;SDS011;54767;53.800;15.956;2023-02-26T12:12:06;3.60;;;1.70;;
67986;SDS011;54767;53.800;15.956;2023-02-26T12:17:58;4.30;;;1.00;;
67986;SDS011;54767;53.800;15.956;2023-02-26T12:30:22;2.00;;;1.40;;
67986;SDS011;54767;53.800;15.956;2023-02-26T12:38:36;3.10;;;1.70;;
67986;SDS011;54767;53.800;15.956;2023-02-26T12:41:40;2.90;;;1.80;;
67986;SDS011;54767;53.800;15.956;2023-02-26T12:44:14;3.10;;;1.30;;
67986;SDS011;54767;53.800;15.956;2023-02-26T12:52:38;2.90;;;1.90;;
67986;SDS011;54767;53.800;15.956;2023-02-26T13:06:19;6.70;;;4.70;;
67986;SDS011;54767;53.800;15.956;2023-02-26T13:09:25;5.20;;;3.80;;
67986;SDS011;54767;53.800;15.956;2023-02-26T13:14:32;2.60;;;2.40;;
67986;SDS011;54767;53.800;15.956;2023-02-26T13:24:50;3.40;;;1.40;;
67986;SDS011;54767;53.800;15.956;2023-02-26T13:27:29;2.90;;;2.30;;
67986;SDS011;54767;53.800;15.956;2023-02-26T13:32:49;12.00;;;6.60;;
67986;SDS011;54767;53.800;15.956;2023-02-26T13:35:25;13.30;;;9.20;;
67986;SDS011;54767;53.800;15.956;2023-02-26T13:38:00;15.60;;;11.70;;
67986;SDS011;54767;53.800;15.956;2023-02-26T13:40:39;12.00;;;8.00;;
67986;SDS011;54767;53.800;15.956;2023-02-26T13:51:51;6.10;;;4.20;;
67986;SDS011;54767;53.800;15.956;2023-02-26T13:57:05;5.70;;;4.50;;
67986;SDS011;54767;53.800;15.956;2023-02-26T14:04:50;6.40;;;4.40;;
67986;SDS011;54767;53.800;15.956;2023-02-26T14:13:38;3.80;;;3.10;;
67986;SDS011;54767;53.800;15.956;2023-02-26T14:19:40;3.10;;;2.30;;
67986;SDS011;54767;53.800;15.956;2023-02-26T14:22:33;2.80;;;2.40;;
67986;SDS011;54767;53.800;15.956;2023-02-26T14:27:40;2.90;;;1.90;;
67986;SDS011;54767;53.800;15.956;2023-02-26T14:32:46;3.20;;;2.40;;
67986;SDS011;54767;53.800;15.956;2023-02-26T14:40:37;3.80;;;2.80;;
67986;SDS011;54767;53.800;15.956;2023-02-26T14:43:12;1.40;;;1.20;;
67986;SDS011;54767;53.800;15.956;2023-02-26T14:46:08;5.10;;;4.70;;
67986;SDS011;54767;53.800;15.956;2023-02-26T14:54:29;3.00;;;2.20;;
67986;SDS011;54767;53.800;15.956;2023-02-26T14:59:42;2.00;;;1.40;;
67986;SDS011;54767;53.800;15.956;2023-02-26T15:10:40;2.60;;;1.10;;
67986;SDS011;54767;53.800;15.956;2023-02-26T15:18:44;2.90;;;1.10;;
67986;SDS011;54767;53.800;15.956;2023-02-26T15:24:28;3.40;;;2.00;;
67986;SDS011;54767;53.800;15.956;2023-02-26T15:26:59;4.40;;;1.80;;
67986;SDS011;54767;53.800;15.956;2023-02-26T15:29:30;3.90;;;1.50;;
67986;SDS011;54767;53.800;15.956;2023-02-26T15:32:22;1.40;;;0.90;;
67986;SDS011;54767;53.800;15.956;2023-02-26T15:35:02;2.90;;;1.50;;
67986;SDS011;54767;53.800;15.956;2023-02-26T15:37:34;3.50;;;1.10;;
67986;SDS011;54767;53.800;15.956;2023-02-26T15:40:03;2.60;;;1.10;;
67986;SDS011;54767;53.800;15.956;2023-02-26T15:42:36;3.30;;;1.10;;
67986;SDS011;54767;53.800;15.956;2023-02-26T15:45:24;2.80;;;1.10;;
67986;SDS011;54767;53.800;15.956;2023-02-26T15:47:58;1.00;;;0.90;;
67986;SDS011;54767;53.800;15.956;2023-02-26T15:50:31;1.90;;;1.20;;
67986;SDS011;54767;53.800;15.956;2023-02-26T15:53:03;1.70;;;1.10;;
67986;SDS011;54767;53.800;15.956;2023-02-26T15:58:05;3.20;;;1.40;;
67986;SDS011;54767;53.800;15.956;2023-02-26T16:00:35;1.50;;;1.20;;
67986;SDS011;54767;53.800;15.956;2023-02-26T16:03:03;3.20;;;1.50;;
67986;SDS011;54767;53.800;15.956;2023-02-26T16:05:32;2.40;;;1.70;;
67986;SDS011;54767;53.800;15.956;2023-02-26T16:08:00;3.70;;;2.10;;
67986;SDS011;54767;53.800;15.956;2023-02-26T16:10:35;10.10;;;6.90;;
67986;SDS011;54767;53.800;15.956;2023-02-26T16:13:10;4.70;;;3.20;;
67986;SDS011;54767;53.800;15.956;2023-02-26T16:15:43;4.30;;;2.60;;
67986;SDS011;54767;53.800;15.956;2023-02-26T16:18:15;3.20;;;1.80;;
67986;SDS011;54767;53.800;15.956;2023-02-26T16:20:49;3.80;;;2.50;;
67986;SDS011;54767;53.800;15.956;2023-02-26T16:23:25;3.50;;;2.10;;
67986;SDS011;54767;53.800;15.956;2023-02-26T16:26:03;2.30;;;1.80;;
67986;SDS011;54767;53.800;15.956;2023-02-26T16:28:38;2.90;;;1.20;;
67986;SDS011;54767;53.800;15.956;2023-02-26T16:31:16;3.20;;;1.30;;
67986;SDS011;54767;53.800;15.956;2023-02-26T16:36:22;0.90;;;0.70;;
67986;SDS011;54767;53.800;15.956;2023-02-26T16:39:00;2.30;;;1.00;;
67986;SDS011;54767;53.800;15.956;2023-02-26T16:41:33;1.80;;;0.80;;
67986;SDS011;54767;53.800;15.956;2023-02-26T16:44:05;2.10;;;0.90;;
67986;SDS011;54767;53.800;15.956;2023-02-26T16:46:57;1.80;;;1.00;;
67986;SDS011;54767;53.800;15.956;2023-02-26T16:49:31;1.80;;;1.20;;
67986;SDS011;54767;53.800;15.956;2023-02-26T16:52:01;2.10;;;1.20;;
67986;SDS011;54767;53.800;15.956;2023-02-26T16:54:35;2.10;;;1.30;;
67986;SDS011;54767;53.800;15.956;2023-02-26T16:59:48;6.40;;;3.00;;
67986;SDS011;54767;53.800;15.956;2023-02-26T17:02:21;21.80;;;5.00;;
67986;SDS011;54767;53.800;15.956;2023-02-26T17:04:58;22.00;;;5.10;;
67986;SDS011;54767;53.800;15.956;2023-02-26T17:07:34;10.50;;;3.80;;
67986;SDS011;54767;53.800;15.956;2023-02-26T17:10:18;7.80;;;3.30;;
67986;SDS011;54767;53.800;15.956;2023-02-26T17:12:52;5.80;;;2.50;;
67986;SDS011;54767;53.800;15.956;2023-02-26T17:15:27;5.30;;;2.30;;
67986;SDS011;54767;53.800;15.956;2023-02-26T17:17:58;3.00;;;1.80;;
67986;SDS011;54767;53.800;15.956;2023-02-26T17:20:27;2.40;;;1.70;;
67986;SDS011;54767;53.800;15.956;2023-02-26T17:22:59;3.50;;;1.60;;
67986;SDS011;54767;53.800;15.956;2023-02-26T17:26:27;1.90;;;1.30;;
67986;SDS011;54767;53.800;15.956;2023-02-26T17:28:56;1.80;;;1.30;;
67986;SDS011;54767;53.800;15.956;2023-02-26T17:31:49;3.80;;;1.40;;
67986;SDS011;54767;53.800;15.956;2023-02-26T17:34:18;3.80;;;1.90;;
67986;SDS011;54767;53.800;15.956;2023-02-26T17:36:48;3.30;;;2.10;;
67986;SDS011;54767;53.800;15.956;2023-02-26T17:39:16;3.40;;;1.80;;
67986;SDS011;54767;53.800;15.956;2023-02-26T17:41:44;3.00;;;1.80;;
67986;SDS011;54767;53.800;15.956;2023-02-26T17:44:12;2.00;;;1.70;;
67986;SDS011;54767;53.800;15.956;2023-02-26T17:46:40;1.90;;;1.40;;
67986;SDS011;54767;53.800;15.956;2023-02-26T17:49:10;6.60;;;4.00;;
67986;SDS011;54767;53.800;15.956;2023-02-26T17:51:39;4.60;;;2.90;;
67986;SDS011;54767;53.800;15.956;2023-02-26T17:54:07;4.10;;;2.30;;
67986;SDS011;54767;53.800;15.956;2023-02-26T17:56:36;4.70;;;3.30;;
67986;SDS011;54767;53.800;15.956;2023-02-26T17:59:04;3.40;;;2.30;;
67986;SDS011;54767;53.800;15.956;2023-02-26T18:01:34;4.40;;;2.40;;
67986;SDS011;54767;53.800;15.956;2023-02-26T18:04:02;4.60;;;2.70;;
67986;SDS011;54767;53.800;15.956;2023-02-26T18:06:32;4.20;;;2.20;;
67986;SDS011;54767;53.800;15.956;2023-02-26T18:09:03;3.60;;;1.60;;
67986;SDS011;54767;53.800;15.956;2023-02-26T18:11:32;12.50;;;5.10;;
67986;SDS011;54767;53.800;15.956;2023-02-26T18:14:01;20.80;;;6.90;;
67986;SDS011;54767;53.800;15.956;2023-02-26T18:16:31;26.90;;;9.20;;
67986;SDS011;54767;53.800;15.956;2023-02-26T18:19:03;34.10;;;11.60;;
67986;SDS011;54767;53.800;15.956;2023-02-26T18:21:32;15.30;;;5.60;;
67986;SDS011;54767;53.800;15.956;2023-02-26T18:24:01;13.70;;;5.00;;
67986;SDS011;54767;53.800;15.956;2023-02-26T18:26:30;6.00;;;2.80;;
67986;SDS011;54767;53.800;15.956;2023-02-26T18:28:59;4.30;;;2.20;;